Time;durP1;ratioP1;P1;durP2;ratioP2;P2;SDS_P1;SDS_P2;PMS_P1;PMS_P2;Temp;Humidity;BMP_temperature;BMP_pressure;BME280_temperature;BME280_humidity;BME280_pressure;Samples;Min_cycle;Max_cycle;Signal;HPM_P1;HPM_P2
2022/09/24 00:03:24;;;;;;;7.72;3.40;;;;;;;10.81;63.15;99686.00;10417318;28;20061;-84
2022/09/24 00:08:25;;;;;;;8.68;3.88;;;;;;;10.79;63.23;99674.81;10417679;28;20079;-84
2022/09/24 00:13:28;;;;;;;6.75;4.10;;;;;;;10.84;63.18;99674.50;10430850;28;20069;-84
2022/09/24 00:18:30;;;;;;;6.13;4.15;;;;;;;10.64;63.48;99674.97;10433830;28;20049;-84
2022/09/24 00:23:31;;;;;;;6.53;3.58;;;;;;;10.73;63.67;99680.44;10412875;28;20052;-84
2022/09/24 00:28:33;;;;;;;6.82;4.18;;;;;;;10.80;63.47;99676.50;10418868;28;20057;-85
2022/09/24 00:33:35;;;;;;;6.55;3.55;;;;;;;10.78;63.30;99667.06;10399660;28;20045;-85
2022/09/24 00:38:36;;;;;;;11.10;4.07;;;;;;;10.81;63.52;99664.22;10400653;28;20068;-84
2022/09/24 00:43:38;;;;;;;6.15;3.60;;;;;;;10.77;63.04;99666.22;10398682;28;20053;-84
2022/09/24 00:48:42;;;;;;;8.30;3.85;;;;;;;10.73;62.96;99663.88;10432078;28;20057;-84
2022/09/24 00:53:47;;;;;;;9.40;4.13;;;;;;;10.61;63.23;99668.13;10397952;28;20045;-84
2022/09/24 00:58:51;;;;;;;9.85;4.20;;;;;;;10.56;63.30;99654.53;10416207;28;20514;-85
2022/09/24 01:03:55;;;;;;;8.15;3.90;;;;;;;10.48;63.54;99646.34;10433691;28;20056;-84
2022/09/24 01:08:58;;;;;;;7.80;4.22;;;;;;;10.40;63.37;99646.81;10428352;28;20053;-85
2022/09/24 01:14:09;;;;;;;7.10;4.82;;;;;;;10.17;63.69;99649.22;10400159;28;20060;-84
2022/09/24 01:19:33;;;;;;;7.50;3.63;;;;;;;10.05;63.78;99640.38;10431373;28;20045;-84
2022/09/24 01:25:12;;;;;;;9.00;4.20;;;;;;;10.01;64.05;99630.19;10432218;28;20056;-85
2022/09/24 01:30:14;;;;;;;7.13;4.10;;;;;;;10.03;64.01;99630.94;10414327;28;20052;-85
2022/09/24 01:35:24;;;;;;;8.27;3.95;;;;;;;9.96;63.66;99625.25;10412657;28;20056;-85
2022/09/24 01:40:27;;;;;;;6.70;3.63;;;;;;;9.96;63.76;99624.41;10415875;28;20056;-84
2022/09/24 01:45:30;;;;;;;8.18;4.32;;;;;;;9.91;63.79;99619.44;10424847;28;20558;-84
2022/09/24 01:51:10;;;;;;;6.15;4.05;;;;;;;9.83;64.12;99615.66;10437848;28;20062;-84
2022/09/24 01:56:23;;;;;;;6.70;4.00;;;;;;;9.86;64.05;99605.84;10407340;28;20070;-83
2022/09/24 02:01:32;;;;;;;7.55;4.10;;;;;;;9.85;64.17;99605.97;10422503;28;20061;-84
2022/09/24 02:07:07;;;;;;;8.52;4.55;;;;;;;9.71;64.53;99603.34;10427614;28;20060;-84
2022/09/24 02:12:15;;;;;;;8.50;4.38;;;;;;;9.73;64.25;99589.25;10422105;28;20111;-84
2022/09/24 02:17:17;;;;;;;6.97;4.10;;;;;;;9.71;64.26;99583.28;10442100;28;20411;-84
2022/09/24 02:22:22;;;;;;;6.90;3.95;;;;;;;9.71;63.89;99577.25;10426851;28;20152;-84
2022/09/24 02:27:27;;;;;;;7.85;3.97;;;;;;;9.72;64.21;99576.28;10423349;28;20545;-84
2022/09/24 02:32:33;;;;;;;6.80;3.92;;;;;;;9.65;64.07;99581.88;10442291;28;20056;-84
2022/09/24 02:37:36;;;;;;;11.38;4.30;;;;;;;9.64;64.15;99584.56;10442429;28;20049;-84
2022/09/24 02:42:41;;;;;;;6.22;4.35;;;;;;;9.56;64.03;99582.41;10424148;28;20061;-84
2022/09/24 02:47:42;;;;;;;7.30;4.93;;;;;;;9.34;64.02;99574.22;10424494;28;20049;-85
2022/09/24 02:52:44;;;;;;;10.30;3.90;;;;;;;9.23;64.37;99575.78;10408694;28;20060;-85
2022/09/24 02:57:46;;;;;;;7.82;4.10;;;;;;;9.25;64.46;99577.38;10408905;28;20045;-84
2022/09/24 03:02:48;;;;;;;8.38;4.63;;;;;;;9.24;64.47;99577.50;10406565;28;20055;-83
2022/09/24 03:07:50;;;;;;;9.43;4.53;;;;;;;9.23;64.60;99592.31;10416442;28;20054;-84
2022/09/24 03:12:52;;;;;;;7.97;3.97;;;;;;;9.21;64.77;99596.78;10398786;28;20045;-84
2022/09/24 03:17:53;;;;;;;6.90;4.63;;;;;;;9.20;64.73;99597.69;10417974;28;20046;-84
2022/09/24 03:22:55;;;;;;;5.28;4.05;;;;;;;9.20;64.72;99596.88;10403949;28;20056;-84
2022/09/24 03:27:57;;;;;;;9.55;4.32;;;;;;;9.22;64.41;99595.81;10418556;28;20404;-83
2022/09/24 03:32:58;;;;;;;8.90;4.40;;;;;;;9.20;64.40;99587.25;10399123;28;20062;-83
2022/09/24 03:38:00;;;;;;;8.43;3.80;;;;;;;9.18;64.35;99589.09;10400755;28;20621;-84
2022/09/24 03:43:02;;;;;;;9.45;4.72;;;;;;;9.19;64.54;99582.13;10398789;28;20052;-83
2022/09/24 03:48:05;;;;;;;6.20;4.40;;;;;;;9.17;64.70;99570.94;10399137;28;20073;-83
2022/09/24 03:53:07;;;;;;;9.18;4.28;;;;;;;9.19;64.51;99567.31;10401465;28;20059;-84
2022/09/24 03:58:08;;;;;;;8.90;4.50;;;;;;;9.06;64.78;99570.72;10398993;28;20061;-84
2022/09/24 04:03:10;;;;;;;6.50;4.00;;;;;;;8.99;64.85;99565.06;10415546;28;20060;-84
2022/09/24 04:08:12;;;;;;;6.10;4.32;;;;;;;9.11;64.86;99561.72;10399466;28;20057;-83
2022/09/24 04:13:15;;;;;;;5.68;4.00;;;;;;;9.25;64.45;99566.94;10412639;28;20053;-83
2022/09/24 04:18:17;;;;;;;11.60;5.00;;;;;;;9.24;64.21;99560.03;10400377;28;20406;-83
2022/09/24 04:23:19;;;;;;;6.65;4.15;;;;;;;9.14;64.55;99578.94;10412212;28;20060;-83
2022/09/24 04:28:21;;;;;;;9.70;4.45;;;;;;;9.18;64.50;99565.63;10411809;28;20395;-83
2022/09/24 04:33:22;;;;;;;21.60;6.22;;;;;;;9.26;64.45;99562.59;10398949;28;20053;-84
2022/09/24 04:38:24;;;;;;;220.55;12.00;;;;;;;9.05;64.43;99551.66;10399324;28;20483;-84
2022/09/24 04:43:25;;;;;;;8.55;5.20;;;;;;;8.91;65.01;99543.81;10399560;28;20060;-83
2022/09/24 04:48:28;;;;;;;5.30;4.20;;;;;;;9.07;64.71;99548.94;10412377;28;20049;-83
2022/09/24 04:53:31;;;;;;;6.38;4.35;;;;;;;9.09;64.60;99547.94;10416096;28;20059;-83
2022/09/24 04:58:33;;;;;;;5.95;3.92;;;;;;;9.17;64.25;99550.91;10399314;28;20053;-83
2022/09/24 05:03:34;;;;;;;5.25;3.90;;;;;;;9.20;64.19;99547.28;10396689;28;20045;-84
2022/09/24 05:08:36;;;;;;;7.63;4.43;;;;;;;9.21;64.26;99544.59;10396548;28;20403;-84
2022/09/24 05:13:38;;;;;;;9.73;5.63;;;;;;;9.21;64.37;99555.03;10414706;28;20068;-83
2022/09/24 05:18:40;;;;;;;6.93;4.63;;;;;;;9.16;64.44;99554.44;10406699;28;20419;-84
2022/09/24 05:23:41;;;;;;;6.53;4.50;;;;;;;9.21;64.21;99549.81;10408002;28;20053;-82
2022/09/24 05:28:43;;;;;;;7.50;4.38;;;;;;;9.21;64.29;99548.97;10404290;28;20072;-83
2022/09/24 05:33:45;;;;;;;7.38;4.00;;;;;;;9.31;64.29;99558.75;10405413;28;20056;-83
2022/09/24 05:38:46;;;;;;;6.95;4.50;;;;;;;9.38;63.95;99560.03;10406315;28;20048;-83
2022/09/24 05:43:48;;;;;;;5.53;4.80;;;;;;;9.41;64.11;99564.25;10404250;28;20053;-83
2022/09/24 05:48:50;;;;;;;5.38;4.28;;;;;;;9.36;64.15;99572.34;10402849;28;20216;-83
2022/09/24 05:53:52;;;;;;;6.93;4.32;;;;;;;9.37;64.04;99574.03;10439567;28;20091;-84
2022/09/24 05:58:53;;;;;;;7.45;4.30;;;;;;;9.33;64.14;99569.09;10401969;28;20045;-83
2022/09/24 06:03:58;;;;;;;6.22;4.22;;;;;;;9.44;64.16;99580.56;10422442;28;20053;-83
2022/09/24 06:09:08;;;;;;;10.00;4.70;;;;;;;9.71;64.21;99583.28;10403432;28;20060;-83
2022/09/24 06:14:11;;;;;;;8.00;4.57;;;;;;;9.83;63.43;99584.31;10399366;28;20114;-83
2022/09/24 06:19:12;;;;;;;8.20;4.88;;;;;;;9.75;63.51;99576.94;10403855;28;21002;-84
2022/09/24 06:24:14;;;;;;;6.75;4.53;;;;;;;9.89;63.54;99586.56;10420876;28;20060;-83
2022/09/24 06:29:16;;;;;;;9.57;4.78;;;;;;;10.18;63.12;99588.16;10433388;28;20045;-83
2022/09/24 06:34:18;;;;;;;7.80;4.78;;;;;;;10.47;62.66;99598.44;10402215;28;20064;-84
2022/09/24 06:39:24;;;;;;;9.52;4.30;;;;;;;10.47;62.45;99593.22;10402891;28;20049;-84
2022/09/24 06:44:26;;;;;;;9.90;5.10;;;;;;;10.65;62.46;99599.00;10419625;28;20427;-83
2022/09/24 06:49:28;;;;;;;8.70;6.20;;;;;;;10.89;62.00;99576.47;10401672;28;20053;-83
2022/09/24 06:54:34;;;;;;;11.52;6.43;;;;;;;10.75;62.13;99578.31;10401157;28;20776;-83
2022/09/24 06:59:36;;;;;;;9.07;6.60;;;;;;;10.76;61.89;99578.22;10418892;28;20411;-84
2022/09/24 07:04:38;;;;;;;10.68;6.30;;;;;;;10.80;62.23;99592.78;10401810;28;20067;-84
2022/09/24 07:09:40;;;;;;;8.02;6.15;;;;;;;11.10;61.75;99584.69;10419763;28;20076;-83
2022/09/24 07:14:41;;;;;;;7.13;4.68;;;;;;;11.39;61.37;99585.34;10401163;28;20503;-84
2022/09/24 07:19:43;;;;;;;9.25;6.43;;;;;;;11.52;60.96;99594.03;10420774;28;20045;-83
2022/09/24 07:24:45;;;;;;;8.32;6.03;;;;;;;11.59;61.19;99590.03;10396509;28;20053;-83
2022/09/24 07:29:48;;;;;;;16.10;7.75;;;;;;;11.61;61.02;99591.63;10432510;28;20052;-83
2022/09/24 07:34:49;;;;;;;11.55;7.85;;;;;;;11.50;61.38;99593.31;10418958;28;20052;-83
2022/09/24 07:39:51;;;;;;;11.80;6.72;;;;;;;12.11;60.33;99590.66;10399787;28;20422;-84
2022/09/24 07:44:54;;;;;;;11.45;8.38;;;;;;;12.41;59.23;99593.75;10417109;28;20057;-84
2022/09/24 07:49:56;;;;;;;9.73;8.50;;;;;;;12.31;59.59;99597.16;10428540;28;20045;-84
2022/09/24 07:54:58;;;;;;;11.38;7.53;;;;;;;12.42;59.58;99595.41;10399627;28;20131;-84
2022/09/24 07:59:59;;;;;;;10.18;7.70;;;;;;;12.83;58.63;99601.09;10413403;28;20404;-84
2022/09/24 08:05:01;;;;;;;10.68;7.40;;;;;;;12.94;58.63;99595.06;10397944;28;20309;-85
2022/09/24 08:10:03;;;;;;;8.38;6.65;;;;;;;13.23;58.18;99588.44;10394626;28;20064;-84
2022/09/24 08:15:06;;;;;;;12.40;7.45;;;;;;;13.71;57.27;99595.22;10427634;28;20060;-84
2022/09/24 08:20:09;;;;;;;11.13;7.05;;;;;;;13.87;56.47;99594.84;10413105;28;20526;-84
2022/09/24 08:25:11;;;;;;;8.95;6.50;;;;;;;13.87;56.60;99588.75;10433866;28;20063;-84
2022/09/24 08:30:13;;;;;;;8.57;6.45;;;;;;;13.84;56.71;99574.06;10435254;28;20100;-84
2022/09/24 08:35:15;;;;;;;9.15;7.10;;;;;;;13.91;56.26;99574.41;10432682;28;20053;-85
2022/09/24 08:40:21;;;;;;;10.77;7.40;;;;;;;14.04;56.19;99573.34;10399536;28;20144;-87
2022/09/24 08:51:11;;;;;;;9.50;7.40;;;;;;;15.23;54.00;99578.38;10368576;28;20508;-86
2022/09/24 08:56:17;;;;;;;9.43;7.70;;;;;;;15.48;53.39;99577.97;10396189;28;20059;-86
2022/09/24 09:01:32;;;;;;;9.40;7.47;;;;;;;15.27;52.49;99577.16;10400530;28;20084;-86
2022/09/24 09:07:12;;;;;;;11.75;7.60;;;;;;;15.09;52.87;99563.75;10415144;28;20749;-84
2022/09/24 09:12:41;;;;;;;14.80;7.70;;;;;;;14.93;53.51;99562.53;10394656;28;20061;-83
2022/09/24 09:17:54;;;;;;;10.98;7.85;;;;;;;15.21;53.34;99575.03;10413414;28;20057;-84
2022/09/24 09:23:02;;;;;;;11.52;7.65;;;;;;;15.26;52.87;99576.34;10429465;28;20502;-83
2022/09/24 09:28:15;;;;;;;12.70;8.57;;;;;;;15.27;53.48;99585.91;10400055;28;20509;-84
2022/09/24 09:33:32;;;;;;;10.38;7.38;;;;;;;15.04;53.44;99578.28;10402037;28;20072;-84
2022/09/24 09:38:49;;;;;;;14.52;7.88;;;;;;;15.23;53.32;99584.50;10399316;28;20052;-84
2022/09/24 09:44:09;;;;;;;13.57;7.45;;;;;;;15.33;53.31;99576.63;10414790;28;20061;-83
2022/09/24 09:49:15;;;;;;;14.83;8.07;;;;;;;15.75;52.39;99573.00;10427886;28;20045;-85
2022/09/24 09:54:17;;;;;;;14.50;7.53;;;;;;;15.83;51.95;99557.34;10411675;28;20137;-84
2022/09/24 09:59:21;;;;;;;12.00;7.30;;;;;;;16.03;52.13;99558.25;10399907;28;20053;-90
2022/09/24 10:04:33;;;;;;;9.93;6.68;;;;;;;16.49;51.48;99547.09;10443424;28;20055;-91
2022/09/24 10:09:40;;;;;;;11.30;7.25;;;;;;;16.74;50.02;99554.47;10438814;28;20510;-90
2022/09/24 10:14:43;;;;;;;10.20;6.30;;;;;;;17.04;48.68;99549.84;10446653;28;20900;-89
2022/09/24 10:19:46;;;;;;;11.98;6.63;;;;;;;17.21;48.52;99537.72;10410676;28;20107;-91
2022/09/24 10:24:49;;;;;;;12.65;6.50;;;;;;;17.11;49.47;99525.50;10432829;28;20060;-91
2022/09/24 10:35:38;;;;;;;10.55;5.72;;;;;;;17.53;46.30;99514.41;10427715;28;20594;-91
2022/09/24 10:40:40;;;;;;;13.98;5.82;;;;;;;18.01;45.76;99508.03;10405878;28;20092;-91
2022/09/24 10:46:33;;;;;;;10.88;6.10;;;;;;;18.38;44.49;99511.44;10443056;28;20061;-91
2022/09/24 10:51:46;;;;;;;8.65;5.93;;;;;;;18.48;44.11;99502.41;10388985;28;20119;-91
2022/09/24 10:56:54;;;;;;;8.60;5.28;;;;;;;18.21;43.76;99506.94;10412530;28;20057;-91
2022/09/24 11:01:59;;;;;;;8.52;5.20;;;;;;;18.31;44.85;99507.72;10411654;28;20141;-92
2022/09/24 11:07:19;;;;;;;11.50;6.38;;;;;;;18.45;44.13;99509.81;10426902;28;20060;-91
2022/09/24 11:12:42;;;;;;;7.75;5.30;;;;;;;18.25;42.58;99490.63;10442133;28;20059;-91
2022/09/24 11:18:09;;;;;;;10.77;5.25;;;;;;;18.35;42.90;99493.19;10441500;28;20490;-91
2022/09/24 11:23:44;;;;;;;8.98;5.53;;;;;;;18.84;43.04;99479.38;10444294;28;20056;-90
2022/09/24 11:28:59;;;;;;;9.50;4.47;;;;;;;18.99;41.00;99479.63;10424816;28;20049;-90
2022/09/24 11:34:04;;;;;;;7.35;4.25;;;;;;;19.38;40.13;99468.44;10424045;28;20059;-90
2022/09/24 11:39:09;;;;;;;7.80;4.13;;;;;;;19.36;39.32;99474.88;10443168;28;20049;-91
2022/09/24 11:44:43;;;;;;;5.78;4.00;;;;;;;19.11;38.95;99463.34;10441953;28;20124;-91
2022/09/24 11:50:24;;;;;;;7.82;4.35;;;;;;;19.24;39.63;99455.78;10405696;28;20099;-91
2022/09/24 11:55:34;;;;;;;7.90;4.23;;;;;;;19.59;39.25;99456.59;10395040;28;20058;-92
2022/09/24 12:00:54;;;;;;;7.50;4.30;;;;;;;19.88;38.04;99455.25;10425124;28;20057;-90
2022/09/24 12:06:20;;;;;;;8.65;3.22;;;;;;;19.99;38.62;99451.47;10437980;28;20124;-90
2022/09/24 12:12:04;;;;;;;7.50;3.53;;;;;;;20.21;38.17;99442.84;10427651;28;20053;-91
2022/09/24 12:17:14;;;;;;;6.57;3.25;;;;;;;20.56;37.98;99429.22;10403979;28;20070;-91
2022/09/24 12:22:18;;;;;;;5.30;3.20;;;;;;;20.40;38.31;99426.59;10403906;28;20087;-91
2022/09/24 12:27:36;;;;;;;5.85;3.13;;;;;;;20.58;37.60;99429.94;10409699;28;20221;-91
2022/09/24 12:32:54;;;;;;;6.55;3.10;;;;;;;20.58;36.58;99413.97;10411138;28;20045;-91
2022/09/24 12:38:07;;;;;;;6.38;3.40;;;;;;;20.47;36.39;99418.78;10429229;28;20079;-92
2022/09/24 12:43:41;;;;;;;7.82;3.70;;;;;;;20.17;35.27;99413.13;10406813;28;20049;-91
2022/09/24 12:48:45;;;;;;;7.35;4.07;;;;;;;20.03;38.10;99412.97;10403080;28;20088;-91
2022/09/24 12:53:56;;;;;;;7.03;3.65;;;;;;;20.27;36.12;99413.00;10406747;28;20106;-91
2022/09/24 12:58:58;;;;;;;8.73;4.32;;;;;;;20.15;38.39;99407.16;10405428;28;20049;-91
2022/09/24 13:04:24;;;;;;;6.38;3.60;;;;;;;20.38;36.90;99404.66;10404650;28;20136;-91
2022/09/24 13:09:33;;;;;;;7.00;4.00;;;;;;;20.22;37.38;99402.03;10437882;28;20144;-91
2022/09/24 13:14:35;;;;;;;6.60;3.33;;;;;;;20.26;39.01;99396.22;10407585;28;20138;-91
2022/09/24 13:19:43;;;;;;;9.20;3.67;;;;;;;20.13;38.38;99405.69;10421142;28;20463;-91
2022/09/24 13:24:51;;;;;;;7.68;3.40;;;;;;;20.23;38.92;99395.72;10406739;28;20071;-91
2022/09/24 13:30:02;;;;;;;7.05;3.67;;;;;;;20.00;38.47;99397.34;10441011;28;20053;-91
2022/09/24 13:35:10;;;;;;;7.57;4.05;;;;;;;20.06;38.40;99392.22;10421819;28;20127;-91
2022/09/24 13:40:25;;;;;;;6.93;4.00;;;;;;;20.09;38.41;99396.38;10431816;28;20124;-91
2022/09/24 13:45:32;;;;;;;8.93;4.70;;;;;;;20.13;38.51;99397.72;10443736;28;20088;-91
2022/09/24 13:50:39;;;;;;;6.97;4.32;;;;;;;20.06;38.52;99394.88;10431171;28;20103;-91
2022/09/24 13:55:53;;;;;;;5.68;3.42;;;;;;;19.77;38.63;99405.09;10412466;28;20503;-93
2022/09/24 14:00:59;;;;;;;5.00;3.53;;;;;;;19.79;39.02;99389.00;10425379;28;20114;-91
2022/09/24 14:06:09;;;;;;;7.25;3.25;;;;;;;19.84;39.25;99389.38;10428430;28;20115;-91
2022/09/24 14:11:18;;;;;;;7.85;2.92;;;;;;;19.92;39.40;99382.25;10431029;28;20125;-91
2022/09/24 14:16:25;;;;;;;5.32;2.50;;;;;;;19.86;39.33;99384.72;10442877;28;20057;-91
2022/09/24 14:21:42;;;;;;;6.70;2.72;;;;;;;19.84;40.37;99378.75;10443594;28;20041;-91
2022/09/24 14:27:06;;;;;;;7.90;2.47;;;;;;;19.77;41.06;99381.19;10429898;28;20095;-91
2022/09/24 14:32:35;;;;;;;5.90;2.55;;;;;;;19.74;39.64;99378.88;10409159;28;20052;-91
2022/09/24 14:37:45;;;;;;;6.38;2.35;;;;;;;19.85;39.98;99375.09;10413122;28;20091;-91
2022/09/24 14:42:53;;;;;;;4.97;2.30;;;;;;;19.81;39.70;99373.72;10447292;28;20048;-91
2022/09/24 14:48:03;;;;;;;8.57;2.50;;;;;;;19.72;40.36;99375.56;10430157;28;20107;-92
2022/09/24 14:53:29;;;;;;;3.45;2.30;;;;;;;19.68;41.44;99370.75;10433033;28;20045;-91
2022/09/24 14:58:35;;;;;;;6.97;3.17;;;;;;;19.88;41.49;99367.66;10428522;28;20062;-91
2022/09/24 15:03:41;;;;;;;5.05;2.58;;;;;;;19.84;42.02;99373.44;10443694;28;20064;-92
2022/09/24 15:08:50;;;;;;;5.03;2.30;;;;;;;19.77;41.72;99372.41;10425129;28;20080;-92
2022/09/24 15:14:14;;;;;;;5.38;2.60;;;;;;;19.56;41.92;99367.56;10412901;28;20061;-91
2022/09/24 15:19:22;;;;;;;8.90;2.38;;;;;;;19.59;41.86;99369.06;10425794;28;20041;-91
2022/09/24 15:24:26;;;;;;;3.22;2.10;;;;;;;19.53;42.01;99382.97;10411378;28;20061;-91
2022/09/24 15:29:28;;;;;;;6.90;2.40;;;;;;;19.50;41.74;99378.00;10428702;28;20419;-91
2022/09/24 15:34:30;;;;;;;4.15;2.13;;;;;;;19.36;41.97;99372.31;10435981;28;20487;-91
2022/09/24 15:39:32;;;;;;;5.15;2.33;;;;;;;19.20;42.21;99385.50;10407272;28;20979;-92
2022/09/24 15:44:43;;;;;;;4.80;2.07;;;;;;;19.07;42.40;99384.31;10424716;28;20064;-91
2022/09/24 15:49:45;;;;;;;5.78;2.30;;;;;;;19.00;43.71;99383.22;10442234;28;20922;-91
2022/09/24 15:54:47;;;;;;;5.68;2.67;;;;;;;18.80;43.59;99387.09;10442485;28;20057;-91
2022/09/24 15:59:50;;;;;;;7.32;3.28;;;;;;;18.55;43.95;99396.69;10410043;28;20136;-92
2022/09/24 16:04:52;;;;;;;6.38;2.88;;;;;;;18.40;44.54;99395.63;10423030;28;20061;-92
2022/09/24 16:09:53;;;;;;;5.57;2.70;;;;;;;18.22;44.87;99397.44;10426205;28;20045;-91
2022/09/24 16:14:57;;;;;;;5.43;2.40;;;;;;;17.90;45.28;99410.34;10405055;28;20056;-92
2022/09/24 16:20:00;;;;;;;6.32;2.90;;;;;;;17.70;46.24;99410.47;10425228;28;20088;-92
2022/09/24 16:25:02;;;;;;;8.23;3.00;;;;;;;17.58;46.83;99424.91;10410116;28;20064;-91
2022/09/24 16:30:05;;;;;;;8.88;3.00;;;;;;;17.44;48.90;99430.69;10423013;28;20049;-91
2022/09/24 16:35:09;;;;;;;9.07;3.30;;;;;;;17.22;51.56;99444.22;10433936;28;20419;-90
2022/09/24 16:40:11;;;;;;;9.65;3.72;;;;;;;16.57;54.09;99468.06;10407581;28;20123;-89
2022/09/24 16:45:13;;;;;;;9.50;5.30;;;;;;;16.03;57.11;99479.09;10423850;28;20067;-89
2022/09/24 16:50:15;;;;;;;14.50;6.00;;;;;;;15.72;58.97;99474.88;10411618;28;20418;-89
2022/09/24 16:55:17;;;;;;;12.02;6.25;;;;;;;15.51;59.74;99477.56;10406493;28;20052;-87
2022/09/24 17:00:19;;;;;;;9.25;5.57;;;;;;;15.37;59.96;99465.56;10405703;28;20414;-86
2022/09/24 17:05:21;;;;;;;9.15;5.20;;;;;;;15.31;60.33;99463.47;10410359;28;20053;-86
2022/09/24 17:10:23;;;;;;;10.32;6.47;;;;;;;15.27;61.28;99474.41;10406940;28;20148;-86
2022/09/24 17:15:26;;;;;;;13.82;7.30;;;;;;;15.14;62.21;99473.81;10409706;28;20076;-86
2022/09/24 17:20:30;;;;;;;11.50;6.72;;;;;;;15.16;62.31;99479.78;10442174;28;20049;-86
2022/09/24 17:25:32;;;;;;;9.38;6.28;;;;;;;15.20;62.15;99465.38;10402892;28;20144;-86
2022/09/24 17:30:35;;;;;;;14.07;5.78;;;;;;;14.98;61.33;99471.63;10433668;28;20401;-85
2022/09/24 17:35:38;;;;;;;14.13;8.85;;;;;;;14.96;62.80;99486.72;10401316;28;20136;-85
2022/09/24 17:40:41;;;;;;;13.55;8.52;;;;;;;15.02;63.03;99490.66;10433967;28;20050;-83
2022/09/24 17:45:42;;;;;;;12.95;9.40;;;;;;;14.83;63.46;99501.06;10436284;28;20099;-83
2022/09/24 17:50:52;;;;;;;11.45;8.52;;;;;;;14.73;64.65;99497.53;10399501;28;20048;-83
2022/09/24 17:55:54;;;;;;;15.53;8.80;;;;;;;14.80;64.46;99496.06;10402912;28;20045;-86
2022/09/24 18:01:06;;;;;;;8.85;7.20;;;;;;;14.85;63.95;99499.13;10406300;28;20079;-86
2022/09/24 18:06:10;;;;;;;15.95;9.15;;;;;;;14.93;64.13;99497.53;10425491;28;20730;-87
2022/09/24 18:11:20;;;;;;;17.55;11.50;;;;;;;14.99;64.08;99489.13;10422072;28;20086;-86
2022/09/24 18:16:29;;;;;;;17.02;12.98;;;;;;;14.87;64.04;99499.84;10439157;28;20060;-86
2022/09/24 18:21:31;;;;;;;11.07;8.02;;;;;;;14.86;64.17;99498.19;10409562;28;20045;-86
2022/09/24 18:26:35;;;;;;;16.55;11.98;;;;;;;14.84;64.08;99503.56;10442556;28;20903;-85
2022/09/24 18:31:37;;;;;;;11.15;8.02;;;;;;;14.68;64.43;99508.44;10420189;28;20045;-87
2022/09/24 18:36:41;;;;;;;16.77;12.05;;;;;;;14.58;64.07;99499.63;10404500;28;20046;-86
2022/09/24 18:41:43;;;;;;;11.45;8.52;;;;;;;14.41;64.38;99498.34;10411133;28;20042;-85
2022/09/24 18:46:45;;;;;;;12.45;9.35;;;;;;;14.28;64.89;99502.97;10402792;28;20049;-85
2022/09/24 18:51:48;;;;;;;11.27;8.52;;;;;;;14.28;65.25;99504.75;10418059;28;20063;-86
2022/09/24 18:56:49;;;;;;;12.13;10.10;;;;;;;14.33;65.31;99513.94;10436661;28;20056;-86
2022/09/24 19:01:51;;;;;;;14.63;11.80;;;;;;;14.40;65.50;99514.28;10404932;28;20056;-86
2022/09/24 19:06:53;;;;;;;13.93;9.77;;;;;;;14.37;65.48;99511.91;10406530;28;20529;-85
2022/09/24 19:11:55;;;;;;;17.48;11.73;;;;;;;14.28;65.15;99502.97;10402521;28;20079;-87
2022/09/24 19:16:57;;;;;;;17.02;13.27;;;;;;;14.33;65.65;99513.94;10403142;28;20064;-86
2022/09/24 19:21:58;;;;;;;16.13;10.77;;;;;;;14.40;65.66;99516.91;10401851;28;20084;-86
2022/09/24 19:27:00;;;;;;;20.48;14.93;;;;;;;14.35;65.54;99517.28;10424712;28;20065;-86
2022/09/24 19:32:02;;;;;;;23.70;17.98;;;;;;;14.29;65.47;99516.94;10420077;28;20052;-87
2022/09/24 19:37:04;;;;;;;15.40;12.23;;;;;;;14.32;65.94;99522.81;10401264;28;20056;-86
2022/09/24 19:42:06;;;;;;;24.55;17.40;;;;;;;14.37;66.30;99525.88;10399562;28;20052;-87
2022/09/24 19:47:08;;;;;;;19.75;16.35;;;;;;;14.43;66.19;99525.38;10400172;28;20364;-86
2022/09/24 19:52:10;;;;;;;46.03;24.95;;;;;;;14.47;66.00;99526.00;10400249;28;20081;-86
2022/09/24 19:57:12;;;;;;;23.60;18.45;;;;;;;14.41;66.00;99531.75;10438176;28;20438;-86
2022/09/24 20:02:14;;;;;;;23.65;17.88;;;;;;;14.40;65.88;99541.44;10402248;28;20403;-86
2022/09/24 20:07:17;;;;;;;36.42;25.38;;;;;;;14.30;66.03;99543.16;10400187;28;20057;-86
2022/09/24 20:12:19;;;;;;;20.48;16.52;;;;;;;14.32;66.52;99548.28;10401634;28;20045;-86
2022/09/24 20:17:20;;;;;;;26.38;18.75;;;;;;;14.39;66.00;99539.75;10404794;28;20056;-86
2022/09/24 20:22:24;;;;;;;27.63;19.70;;;;;;;14.32;65.88;99541.22;10400978;28;20061;-86
2022/09/24 20:32:47;;;;;;;21.77;17.38;;;;;;;14.27;66.25;99551.25;10431578;28;20060;-86
2022/09/24 20:37:48;;;;;;;19.48;16.27;;;;;;;14.31;65.98;99546.59;10453052;28;20052;-86
2022/09/24 20:42:50;;;;;;;22.10;16.58;;;;;;;14.31;66.27;99546.59;10398484;28;20064;-86
2022/09/24 20:47:52;;;;;;;24.90;19.38;;;;;;;14.28;66.44;99550.31;10433549;28;20061;-86
2022/09/24 20:52:54;;;;;;;22.27;17.08;;;;;;;14.31;66.30;99541.31;10400395;28;20052;-86
2022/09/24 20:57:56;;;;;;;18.95;16.23;;;;;;;14.31;66.28;99550.06;10415073;28;20060;-85
2022/09/24 21:02:57;;;;;;;21.65;17.10;;;;;;;14.30;66.27;99545.78;10397400;28;20045;-86
2022/09/24 21:08:00;;;;;;;33.42;23.23;;;;;;;14.33;66.19;99548.13;10397547;28;20527;-86
2022/09/24 21:13:08;;;;;;;44.92;26.52;;;;;;;14.36;66.25;99539.16;10416276;28;20056;-86
2022/09/24 21:18:10;;;;;;;41.60;22.02;;;;;;;14.35;66.03;99543.59;10426208;28;20053;-86
2022/09/24 21:23:25;;;;;;;326.02;30.80;;;;;;;14.20;66.26;99542.22;10400221;28;20057;-86
2022/09/24 21:28:27;;;;;;;277.60;30.70;;;;;;;14.07;66.62;99548.56;10398469;28;20244;-86
2022/09/24 21:33:31;;;;;;;26.23;18.65;;;;;;;14.12;66.71;99544.63;10394476;28;20396;-86
2022/09/24 21:38:33;;;;;;;30.05;21.75;;;;;;;14.20;66.32;99550.09;10395879;28;20541;-86
2022/09/24 21:43:34;;;;;;;41.58;26.42;;;;;;;14.24;66.43;99554.16;10398772;28;20056;-86
2022/09/24 21:48:36;;;;;;;38.08;24.45;;;;;;;14.22;66.42;99553.44;10395263;28;20830;-86
2022/09/24 21:53:38;;;;;;;36.92;23.58;;;;;;;14.23;66.17;99560.38;10401901;28;20041;-86
2022/09/24 21:58:40;;;;;;;24.67;19.13;;;;;;;14.19;66.56;99569.47;10430456;28;20521;-86
2022/09/24 22:03:44;;;;;;;29.38;19.42;;;;;;;14.18;66.75;99567.81;10422778;28;20122;-86
2022/09/24 22:08:46;;;;;;;41.80;23.80;;;;;;;14.15;66.58;99564.56;10405595;28;20974;-86
2022/09/24 22:13:47;;;;;;;43.80;23.35;;;;;;;14.15;66.53;99572.44;10406871;28;20427;-86
2022/09/24 22:18:49;;;;;;;79.38;30.67;;;;;;;14.08;66.79;99569.50;10402517;28;20049;-86
2022/09/24 22:23:51;;;;;;;37.50;22.80;;;;;;;14.01;67.25;99564.84;10405808;28;20055;-86
2022/09/24 22:29:31;;;;;;;68.45;28.02;;;;;;;13.99;67.00;99569.38;10403596;28;20053;-85
2022/09/24 22:39:53;;;;;;;31.93;20.87;;;;;;;14.06;66.69;99562.69;10422909;28;20044;-86
2022/09/24 22:44:57;;;;;;;49.13;26.08;;;;;;;14.08;66.76;99566.88;10403109;28;20052;-86
2022/09/24 22:49:59;;;;;;;39.08;22.60;;;;;;;14.04;66.55;99568.06;10402803;28;20052;-86
2022/09/24 22:55:00;;;;;;;66.53;29.25;;;;;;;14.09;66.88;99558.00;10402216;28;20780;-86
2022/09/24 23:00:04;;;;;;;39.75;22.55;;;;;;;14.15;66.72;99570.66;10402594;28;20250;-86
2022/09/24 23:05:08;;;;;;;44.55;24.45;;;;;;;14.16;66.81;99569.72;10418581;28;20068;-86
2022/09/24 23:10:10;;;;;;;55.53;26.92;;;;;;;14.22;66.52;99565.75;10402482;28;20044;-86
2022/09/24 23:15:13;;;;;;;47.95;26.08;;;;;;;14.23;66.37;99559.53;10420810;28;21038;-86
2022/09/24 23:20:15;;;;;;;47.50;25.60;;;;;;;14.22;66.35;99542.94;10403473;28;20064;-85
2022/09/24 23:25:17;;;;;;;43.25;24.27;;;;;;;14.20;66.21;99550.09;10401591;28;20059;-85
2022/09/24 23:30:20;;;;;;;34.97;22.05;;;;;;;14.06;66.44;99547.75;10413413;28;20049;-86
2022/09/24 23:35:22;;;;;;;26.33;19.55;;;;;;;14.09;66.68;99550.13;10420597;28;20060;-86
2022/09/24 23:40:25;;;;;;;35.40;21.80;;;;;;;14.13;66.79;99548.91;10404710;28;20046;-86
2022/09/24 23:45:27;;;;;;;26.08;18.85;;;;;;;14.16;66.76;99551.31;10402164;28;20127;-85
2022/09/24 23:50:29;;;;;;;25.33;16.92;;;;;;;14.13;66.76;99548.91;10401070;28;20053;-86
2022/09/24 23:55:31;;;;;;;35.53;19.42;;;;;;;14.08;66.77;99545.84;10400433;28;20049;-85
